createdAt,value
2018-12-14T00:00:46.668Z,5.6
2018-12-14T00:03:46.754Z,5.9
2018-12-14T00:06:46.959Z,5.5
2018-12-14T00:09:46.622Z,5.4
2018-12-14T00:12:47.573Z,6
2018-12-14T00:15:46.729Z,6
2018-12-14T00:18:46.776Z,6
2018-12-14T00:21:46.970Z,6.1
2018-12-14T00:24:46.747Z,5.6
2018-12-14T00:27:46.664Z,5.8
2018-12-14T00:30:46.637Z,5.9
2018-12-14T00:33:46.740Z,5.9
2018-12-14T00:36:46.566Z,6.1
2018-12-14T00:39:46.888Z,6
2018-12-14T00:42:46.610Z,5.8
2018-12-14T00:45:46.811Z,5.6
2018-12-14T00:48:46.752Z,5.7
2018-12-14T00:51:46.935Z,5.9
2018-12-14T00:54:46.548Z,5.8
2018-12-14T00:57:47.304Z,5.9
2018-12-14T01:00:46.638Z,6.4
2018-12-14T01:03:46.749Z,6.3
2018-12-14T01:06:47.591Z,5.9
2018-12-14T01:09:46.732Z,5.7
2018-12-14T01:12:46.772Z,5.7
2018-12-14T01:15:46.570Z,5.6
2018-12-14T01:18:46.754Z,5.9
2018-12-14T01:21:46.760Z,6.2
2018-12-14T01:24:47.463Z,5.7
2018-12-14T01:27:46.606Z,5.9
2018-12-14T01:30:46.514Z,6
2018-12-14T01:33:46.827Z,5.9
2018-12-14T01:36:46.980Z,5.7
2018-12-14T01:39:46.988Z,6
2018-12-14T01:42:46.791Z,6
2018-12-14T01:45:46.737Z,5.9
2018-12-14T01:48:46.609Z,5.9
2018-12-14T01:51:46.862Z,5.8
2018-12-14T01:54:46.761Z,5.7
2018-12-14T01:57:47.392Z,6.1
2018-12-14T02:00:46.925Z,5.9
2018-12-14T02:03:46.957Z,5.8
2018-12-14T02:06:46.783Z,5.8
2018-12-14T02:09:46.584Z,6
2018-12-14T02:12:46.807Z,5.9
2018-12-14T02:15:46.557Z,6.1
2018-12-14T02:18:46.840Z,6.1
2018-12-14T02:21:46.931Z,6.4
2018-12-14T02:24:46.561Z,6.7
2018-12-14T02:27:46.800Z,6.5
2018-12-14T02:30:46.975Z,6.2
2018-12-14T02:33:46.546Z,6
2018-12-14T02:36:47.070Z,5.9
2018-12-14T02:39:46.839Z,6.7
2018-12-14T02:42:46.736Z,6.5
2018-12-14T02:45:46.919Z,6.9
2018-12-14T02:48:46.886Z,6.1
2018-12-14T02:51:46.662Z,6
2018-12-14T02:54:47.218Z,6
2018-12-14T02:57:46.558Z,6.1
2018-12-14T03:00:46.831Z,6.2
2018-12-14T03:03:47.041Z,6
2018-12-14T03:06:46.814Z,5.8
2018-12-14T03:09:46.598Z,6.2
2018-12-14T03:12:46.919Z,6.7
2018-12-14T03:15:46.759Z,6.3
2018-12-14T03:18:46.551Z,6.4
2018-12-14T03:21:46.962Z,6.2
2018-12-14T03:24:46.607Z,6.2
2018-12-14T03:27:46.446Z,6.1
2018-12-14T03:30:46.575Z,6.5
2018-12-14T03:33:46.835Z,7.1
2018-12-14T03:36:47.147Z,6
2018-12-14T03:39:46.561Z,6.3
2018-12-14T03:42:46.839Z,6.2
2018-12-14T03:45:46.512Z,5.8
2018-12-14T03:48:46.683Z,6.4
2018-12-14T03:51:46.919Z,6.6
2018-12-14T03:54:46.966Z,6.1
2018-12-14T03:57:46.546Z,6.1
2018-12-14T04:00:46.555Z,5.7
2018-12-14T04:03:46.771Z,6.1
2018-12-14T04:06:46.525Z,5.6
2018-12-14T04:09:46.615Z,6.1
2018-12-14T04:12:46.780Z,6.4
2018-12-14T04:15:46.518Z,5.9
2018-12-14T04:18:47.545Z,6.3
2018-12-14T04:21:46.587Z,6.2
2018-12-14T04:24:47.176Z,5.7
2018-12-14T04:27:46.513Z,7.3
2018-12-14T04:30:46.478Z,6.2
2018-12-14T04:33:46.653Z,6.3
2018-12-14T04:36:46.810Z,6.3
2018-12-14T04:39:46.568Z,6.2
2018-12-14T04:42:49.321Z,6.2
2018-12-14T04:45:47.167Z,5.8
2018-12-14T04:48:47.279Z,5.9
2018-12-14T04:51:46.862Z,5.7
2018-12-14T04:54:46.976Z,5.8
2018-12-14T04:57:46.479Z,5.4
2018-12-14T05:00:46.822Z,5.7
2018-12-14T05:03:46.511Z,5.7
2018-12-14T05:06:46.610Z,5.4
2018-12-14T05:09:46.568Z,5.6
2018-12-14T05:12:46.978Z,5.8
2018-12-14T05:15:46.573Z,5.5
2018-12-14T05:18:46.697Z,5.4
2018-12-14T05:21:47.053Z,5.3
2018-12-14T05:24:46.539Z,5.6
2018-12-14T05:27:47.577Z,5.2
2018-12-14T05:30:46.984Z,5.7
2018-12-14T05:33:46.461Z,5.4
2018-12-14T05:36:46.793Z,5.4
2018-12-14T05:39:46.989Z,5.9
2018-12-14T05:42:46.552Z,5
2018-12-14T05:45:46.469Z,5.5
2018-12-14T05:48:46.595Z,5.4
2018-12-14T05:51:46.843Z,5.2
2018-12-14T05:54:46.578Z,5.5
2018-12-14T05:57:46.863Z,5.3
2018-12-14T06:00:46.623Z,5.4
2018-12-14T06:03:46.547Z,5.4
2018-12-14T06:06:46.600Z,5.7
2018-12-14T06:09:46.377Z,5.5
2018-12-14T06:12:46.923Z,5.9
2018-12-14T06:15:46.426Z,5.7
2018-12-14T06:18:46.387Z,5.5
2018-12-14T06:21:47.110Z,5.8
2018-12-14T06:24:46.507Z,5.6
2018-12-14T06:27:46.335Z,5.4
2018-12-14T06:30:46.622Z,5.3
2018-12-14T06:33:46.689Z,5.2
2018-12-14T06:36:47.461Z,5.1
2018-12-14T06:39:46.675Z,5.1
2018-12-14T06:42:47.101Z,5.4
2018-12-14T06:45:46.390Z,5.5
2018-12-14T06:48:46.474Z,5.5
2018-12-14T06:51:46.580Z,5
2018-12-14T06:54:46.388Z,5.2
2018-12-14T06:57:46.529Z,5.4
2018-12-14T07:00:46.842Z,5.8
2018-12-14T07:03:46.441Z,5.2
2018-12-14T07:06:46.802Z,5.2
2018-12-14T07:09:46.865Z,5.4
2018-12-14T07:12:47.069Z,5.3
2018-12-14T07:15:46.689Z,5.1
2018-12-14T07:18:46.606Z,5.3
2018-12-14T07:21:46.829Z,5.3
2018-12-14T07:24:46.624Z,5.7
2018-12-14T07:27:46.502Z,5.6
2018-12-14T07:30:46.787Z,5.5
2018-12-14T07:33:46.367Z,5.4
2018-12-14T07:36:47.190Z,5.2
2018-12-14T07:39:46.663Z,5.2
2018-12-14T07:42:46.410Z,5.2
2018-12-14T07:45:46.845Z,5.1
2018-12-14T07:48:46.543Z,5.2
2018-12-14T07:51:46.771Z,5.3
2018-12-14T07:54:46.693Z,5.3
2018-12-14T07:57:46.576Z,5.5
2018-12-14T08:00:47.055Z,5.2
2018-12-14T08:03:46.436Z,5.3
2018-12-14T08:06:46.873Z,5.6
2018-12-14T08:09:46.857Z,5.7
2018-12-14T08:12:46.646Z,5.3
2018-12-14T08:15:46.557Z,5
2018-12-14T08:18:46.868Z,5.4
2018-12-14T08:21:46.417Z,5.7
2018-12-14T08:24:46.439Z,5.1
2018-12-14T08:27:46.500Z,5.4
2018-12-14T08:30:46.393Z,5.6
2018-12-14T08:33:46.484Z,5.7
2018-12-14T08:36:46.799Z,5.9
2018-12-14T08:39:46.927Z,5.3
2018-12-14T08:42:46.352Z,5.7
2018-12-14T08:45:47.057Z,5.5
2018-12-14T08:48:46.486Z,5.8
2018-12-14T08:51:46.457Z,5.8
2018-12-14T08:54:46.576Z,5.7
2018-12-14T08:57:46.822Z,6.1
2018-12-14T09:00:47.433Z,5.8
2018-12-14T09:03:46.436Z,5.4
2018-12-14T09:06:46.524Z,5.2
2018-12-14T09:09:47.648Z,5.2
2018-12-14T09:12:46.468Z,5.5
2018-12-14T09:15:46.972Z,5.3
2018-12-14T09:18:46.604Z,5.3
2018-12-14T09:21:46.809Z,5.4
2018-12-14T09:24:46.333Z,5
2018-12-14T09:27:46.400Z,5
2018-12-14T09:30:46.892Z,5.2
2018-12-14T09:33:46.350Z,5.2
2018-12-14T09:36:46.803Z,5
2018-12-14T09:39:46.870Z,5.1
2018-12-14T09:42:46.368Z,5.2
2018-12-14T09:45:46.669Z,5.5
2018-12-14T09:48:46.802Z,5.4
2018-12-14T09:51:46.377Z,5.6
2018-12-14T09:54:46.808Z,5.4
2018-12-14T09:57:46.359Z,5.2
2018-12-14T10:00:46.564Z,5.6
2018-12-14T10:03:46.402Z,5.5
2018-12-14T10:06:46.459Z,9.3
2018-12-14T10:09:46.798Z,6.3
2018-12-14T10:12:46.613Z,5.5
2018-12-14T10:15:46.480Z,8.3
2018-12-14T10:18:46.409Z,8.7
2018-12-14T10:21:47.159Z,6.8
2018-12-14T10:24:46.536Z,5.3
2018-12-14T10:27:46.402Z,5.9
2018-12-14T10:30:46.514Z,5.5
2018-12-14T10:33:46.574Z,6.5
2018-12-14T10:36:46.374Z,5.2
2018-12-14T10:39:46.558Z,5.6
2018-12-14T10:42:46.763Z,5.5
2018-12-14T10:45:46.303Z,5.2
2018-12-14T10:48:46.348Z,5.9
2018-12-14T10:51:46.525Z,5.6
2018-12-14T10:54:46.480Z,5.2
2018-12-14T10:57:46.454Z,5.8
2018-12-14T11:00:46.972Z,5
2018-12-14T11:03:46.483Z,5.5
2018-12-14T11:06:46.639Z,5.9
2018-12-14T11:09:47.042Z,5.1
2018-12-14T11:12:47.365Z,5.7
2018-12-14T11:15:46.913Z,5.9
2018-12-14T11:18:46.407Z,5.2
2018-12-14T11:21:46.963Z,5.1
2018-12-14T11:24:46.253Z,5.1
2018-12-14T11:27:47.037Z,5.2
2018-12-14T11:30:47.343Z,5
2018-12-14T11:33:46.531Z,5.1
2018-12-14T11:36:46.529Z,5.5
2018-12-14T11:39:46.441Z,5.5
2018-12-14T11:42:46.851Z,5.6
2018-12-14T11:45:46.282Z,5.7
2018-12-14T11:48:46.377Z,5
2018-12-14T11:51:46.553Z,5.4
2018-12-14T11:54:46.290Z,5.7
2018-12-14T11:57:46.762Z,5.2
2018-12-14T12:00:46.632Z,6.5
2018-12-14T12:03:46.718Z,5.4
2018-12-14T12:06:46.479Z,5.2
2018-12-14T12:09:46.862Z,5.3
2018-12-14T12:12:46.614Z,5.3
2018-12-14T12:15:46.536Z,5.9
2018-12-14T12:18:46.746Z,5.2
2018-12-14T12:21:46.535Z,5.5
2018-12-14T12:24:46.517Z,5.1
2018-12-14T12:27:46.260Z,5.1
2018-12-14T12:30:46.784Z,5.5
2018-12-14T12:33:46.191Z,5.1
2018-12-14T12:36:46.332Z,5.6
2018-12-14T12:39:46.454Z,6.2
2018-12-14T12:42:46.332Z,6.6
2018-12-14T12:45:46.418Z,6.8
2018-12-14T12:48:46.869Z,5.6
2018-12-14T12:51:46.781Z,5.2
2018-12-14T12:54:46.577Z,6.2
2018-12-14T12:57:46.708Z,5.6
2018-12-14T13:00:46.526Z,5.8
2018-12-14T13:03:46.300Z,5.9
2018-12-14T13:06:46.437Z,6.1
2018-12-14T13:09:46.709Z,5.9
2018-12-14T13:12:46.308Z,5.8
2018-12-14T13:15:46.277Z,5.5
2018-12-14T13:18:46.825Z,5.9
2018-12-14T13:21:47.090Z,6.1
2018-12-14T13:24:46.493Z,6.1
2018-12-14T13:27:46.485Z,5.7
2018-12-14T13:30:46.969Z,6.5
2018-12-14T13:33:46.391Z,6.5
2018-12-14T13:36:46.382Z,5.4
2018-12-14T13:39:47.039Z,5.8
2018-12-14T13:42:46.283Z,5.4
2018-12-14T13:45:46.331Z,5.8
2018-12-14T13:48:46.505Z,6.2
2018-12-14T13:51:46.886Z,5.8
2018-12-14T13:54:47.942Z,5.1
2018-12-14T13:57:46.321Z,5.7
2018-12-14T14:00:46.490Z,6
2018-12-14T14:03:46.302Z,7.2
2018-12-14T14:06:46.338Z,5.6
2018-12-14T14:09:46.520Z,5.3
2018-12-14T14:12:46.687Z,5.6
2018-12-14T14:15:51.080Z,5.2
2018-12-14T14:18:46.284Z,5.4
2018-12-14T14:21:46.376Z,5.5
2018-12-14T14:24:46.358Z,5.5
2018-12-14T14:27:46.791Z,5.9
2018-12-14T14:30:46.659Z,5.7
2018-12-14T14:33:46.757Z,5.9
2018-12-14T14:36:46.481Z,6.6
2018-12-14T14:39:46.448Z,5.5
2018-12-14T14:42:46.586Z,5.9
2018-12-14T14:45:46.566Z,5.6
2018-12-14T14:48:46.600Z,5.3
2018-12-14T14:51:46.382Z,5.8
2018-12-14T14:54:46.635Z,5.7
2018-12-14T14:57:46.394Z,5.6
2018-12-14T15:00:46.285Z,5.3
2018-12-14T15:03:46.335Z,6.2
2018-12-14T15:06:46.442Z,5.8
2018-12-14T15:09:46.208Z,5.9
2018-12-14T15:12:46.602Z,5.7
2018-12-14T15:15:46.697Z,5.5
2018-12-14T15:18:46.221Z,5.3
2018-12-14T15:21:46.342Z,5.6
2018-12-14T15:24:46.594Z,5.6
2018-12-14T15:27:46.466Z,5.1
2018-12-14T15:30:46.389Z,5.3
2018-12-14T15:33:46.522Z,5.3
2018-12-14T15:36:46.321Z,5.2
2018-12-14T15:39:46.171Z,5.8
2018-12-14T15:42:46.359Z,5.9
2018-12-14T15:45:46.329Z,6.4
2018-12-14T15:48:46.399Z,5.6
2018-12-14T15:51:46.230Z,5.4
2018-12-14T15:54:46.303Z,5.2
2018-12-14T15:57:46.347Z,5.4
2018-12-14T16:00:46.153Z,5.6
2018-12-14T16:03:46.425Z,5.6
2018-12-14T16:06:46.571Z,20.5
2018-12-14T16:09:46.795Z,10.5
2018-12-14T16:12:46.487Z,9.5
2018-12-14T16:15:46.454Z,6.7
2018-12-14T16:18:46.381Z,8
2018-12-14T16:21:46.788Z,8.9
2018-12-14T16:24:47.036Z,7
2018-12-14T16:27:46.612Z,7.4
2018-12-14T16:30:46.441Z,8.3
2018-12-14T16:33:46.941Z,6.9
2018-12-14T16:36:46.169Z,7.8
2018-12-14T16:39:46.269Z,8.5
2018-12-14T16:42:46.313Z,9.7
2018-12-14T16:45:46.238Z,7.1
2018-12-14T16:48:46.504Z,6
2018-12-14T16:51:46.256Z,5.8
2018-12-14T16:54:46.529Z,8.3
2018-12-14T16:57:46.148Z,8.2
2018-12-14T17:00:46.443Z,6
2018-12-14T17:03:47.158Z,6.2
2018-12-14T17:06:46.569Z,6.3
2018-12-14T17:09:46.198Z,6.2
2018-12-14T17:12:46.340Z,6.3
2018-12-14T17:15:46.304Z,7.5
2018-12-14T17:18:46.224Z,9.2
2018-12-14T17:21:46.694Z,9.9
2018-12-14T17:24:50.179Z,6.6
2018-12-14T17:27:50.759Z,6.3
2018-12-14T17:30:46.945Z,8.4
2018-12-14T17:33:46.699Z,6.4
2018-12-14T17:36:46.550Z,7.8
2018-12-14T17:39:46.382Z,8
2018-12-14T17:42:46.272Z,7.6
2018-12-14T17:45:46.660Z,6.7
2018-12-14T17:48:46.139Z,6.6
2018-12-14T17:51:46.478Z,7
2018-12-14T17:54:46.718Z,6.3
2018-12-14T17:57:46.637Z,8.1
2018-12-14T18:00:46.569Z,7.2
2018-12-14T18:03:46.450Z,7
2018-12-14T18:06:46.470Z,5.7
2018-12-14T18:09:46.426Z,7.3
2018-12-14T18:12:46.392Z,6
2018-12-14T18:15:46.910Z,6.2
2018-12-14T18:18:46.649Z,6
2018-12-14T18:21:46.602Z,6.2
2018-12-14T18:24:46.540Z,5.5
2018-12-14T18:27:46.110Z,6.6
2018-12-14T18:30:46.250Z,6.7
2018-12-14T18:33:46.391Z,5.6
2018-12-14T18:36:46.421Z,5.6
2018-12-14T18:39:46.191Z,5.8
2018-12-14T18:42:46.243Z,5.8
2018-12-14T18:45:53.696Z,5.2
2018-12-14T18:48:46.332Z,5.8
2018-12-14T18:51:46.351Z,5.6
2018-12-14T18:54:46.477Z,6.6
2018-12-14T18:57:46.261Z,5
2018-12-14T19:00:46.349Z,5.4
2018-12-14T19:03:46.197Z,5.3
2018-12-14T19:06:46.673Z,5.7
2018-12-14T19:09:46.223Z,5.6
2018-12-14T19:12:46.241Z,5.1
2018-12-14T19:15:46.165Z,5
2018-12-14T19:18:46.332Z,5.4
2018-12-14T19:21:46.244Z,5.9
2018-12-14T19:24:46.165Z,6.5
2018-12-14T19:27:46.282Z,5.1
2018-12-14T19:30:46.599Z,5.3
2018-12-14T19:33:46.092Z,4.8
2018-12-14T19:36:46.495Z,5
2018-12-14T19:39:46.391Z,5.5
2018-12-14T19:42:46.579Z,5.6
2018-12-14T19:45:47.067Z,6
2018-12-14T19:48:46.437Z,6.3
2018-12-14T19:51:46.042Z,6.1
2018-12-14T19:54:46.071Z,9.9
2018-12-14T19:57:46.561Z,5.4
2018-12-14T20:00:46.435Z,10
2018-12-14T20:03:46.288Z,15.2
2018-12-14T20:06:46.235Z,22.5
2018-12-14T20:09:47.268Z,19
2018-12-14T20:12:46.648Z,13.3
2018-12-14T20:15:46.221Z,13.8
2018-12-14T20:18:46.604Z,14.1
2018-12-14T20:21:46.639Z,14.2
2018-12-14T20:24:46.332Z,12.8
2018-12-14T20:27:46.230Z,16.3
2018-12-14T20:30:46.600Z,11.8
2018-12-14T20:33:46.646Z,10.6
2018-12-14T20:36:46.551Z,11.7
2018-12-14T20:39:46.198Z,8.6
2018-12-14T20:42:46.196Z,8.3
2018-12-14T20:45:47.565Z,9.3
2018-12-14T20:48:46.513Z,6.9
2018-12-14T20:51:46.170Z,10.2
2018-12-14T20:54:46.283Z,9.7
2018-12-14T20:57:46.247Z,7.8
2018-12-14T21:00:46.171Z,7.1
2018-12-14T21:03:46.546Z,8.6
2018-12-14T21:06:46.247Z,8
2018-12-14T21:09:46.097Z,9.2
2018-12-14T21:12:46.340Z,6.6
2018-12-14T21:15:46.997Z,6.8
2018-12-14T21:18:46.175Z,9.8
2018-12-14T21:21:46.083Z,10
2018-12-14T21:24:46.199Z,8.1
2018-12-14T21:27:46.197Z,7.1
2018-12-14T21:30:46.283Z,7.7
2018-12-14T21:33:46.094Z,8.5
2018-12-14T21:36:46.515Z,6.7
2018-12-14T21:39:46.545Z,7.4
2018-12-14T21:42:46.156Z,7
2018-12-14T21:45:46.584Z,7.8
2018-12-14T21:48:46.539Z,8.4
2018-12-14T21:51:46.556Z,6.3
2018-12-14T21:54:46.291Z,7.7
2018-12-14T21:57:46.112Z,6.3
2018-12-14T22:00:46.468Z,8.1
2018-12-14T22:03:46.107Z,9.1
2018-12-14T22:06:46.305Z,6.5
2018-12-14T22:09:46.494Z,6.3
2018-12-14T22:12:46.634Z,6.1
2018-12-14T22:15:46.241Z,6.5
2018-12-14T22:18:45.974Z,6.1
2018-12-14T22:21:46.159Z,7
2018-12-14T22:24:46.255Z,7.4
2018-12-14T22:27:46.409Z,5.9
2018-12-14T22:30:46.278Z,6.2
2018-12-14T22:33:46.149Z,6.7
2018-12-14T22:36:46.121Z,6.1
2018-12-14T22:39:46.406Z,7.9
2018-12-14T22:42:45.934Z,5.7
2018-12-14T22:45:46.161Z,6.3
2018-12-14T22:48:46.020Z,5.8
2018-12-14T22:51:46.593Z,6.4
2018-12-14T22:54:46.304Z,5.8
2018-12-14T22:57:46.323Z,6.2
2018-12-14T23:00:46.522Z,5.9
2018-12-14T23:03:46.374Z,5.6
2018-12-14T23:06:46.342Z,7.4
2018-12-14T23:09:46.788Z,6.4
2018-12-14T23:12:45.950Z,5.7
2018-12-14T23:15:46.154Z,6.7
2018-12-14T23:18:46.145Z,6
2018-12-14T23:21:46.893Z,5.6
2018-12-14T23:24:46.236Z,5.1
2018-12-14T23:27:46.434Z,5.8
2018-12-14T23:30:46.079Z,5.9
2018-12-14T23:33:46.177Z,6.4
2018-12-14T23:36:46.384Z,5.4
2018-12-14T23:39:45.952Z,5.8
2018-12-14T23:42:46.336Z,5.7
2018-12-14T23:45:46.448Z,5.6
2018-12-14T23:48:46.064Z,5.9
2018-12-14T23:51:46.512Z,6.2
2018-12-14T23:54:46.255Z,5.7
2018-12-14T23:57:46.077Z,5.9
